Time;durP1;ratioP1;P1;durP2;ratioP2;P2;SDS_P1;SDS_P2;PMS_P1;PMS_P2;Temp;Humidity;BMP_temperature;BMP_pressure;BME280_temperature;BME280_humidity;BME280_pressure;Samples;Min_cycle;Max_cycle;Signal;HPM_P1;HPM_P2
2022/08/25 00:00:31;;;;;;;0.43;0.40;;;15.40;99.90;;;;;;5050698;28;20200;-80
2022/08/25 00:03:02;;;;;;;0.45;0.40;;;15.50;99.90;;;;;;5050691;28;20578;-80
2022/08/25 00:05:35;;;;;;;0.70;0.45;;;15.60;99.90;;;;;;5051854;28;20235;-80
2022/08/25 00:08:07;;;;;;;1.27;0.60;;;15.70;99.90;;;;;;5051862;28;20667;-80
2022/08/25 00:10:39;;;;;;;1.38;0.60;;;15.80;99.90;;;;;;5051687;28;20200;-80
2022/08/25 00:13:10;;;;;;;2.45;0.50;;;15.80;99.90;;;;;;5050418;28;20215;-80
2022/08/25 00:15:42;;;;;;;1.05;0.60;;;15.90;99.90;;;;;;5048865;28;20201;-80
2022/08/25 00:18:13;;;;;;;0.30;0.30;;;16.00;99.90;;;;;;5031732;28;20687;-80
2022/08/25 00:20:46;;;;;;;0.28;0.20;;;16.10;99.90;;;;;;5033010;28;20261;-80
2022/08/25 00:23:16;;;;;;;1.90;0.98;;;16.30;99.90;;;;;;5041126;28;20220;-79
2022/08/25 00:25:48;;;;;;;0.40;0.35;;;16.40;99.90;;;;;;5052117;28;20282;-80
2022/08/25 00:28:19;;;;;;;1.20;0.70;;;16.50;99.90;;;;;;5051167;28;20197;-80
2022/08/25 00:30:50;;;;;;;1.02;0.35;;;16.50;99.90;;;;;;5048414;28;20196;-80
2022/08/25 00:33:21;;;;;;;0.75;0.57;;;16.50;99.90;;;;;;5051478;28;20211;-80
2022/08/25 00:35:55;;;;;;;0.65;0.40;;;16.50;99.90;;;;;;5050791;28;20234;-79
2022/08/25 00:38:26;;;;;;;0.40;0.40;;;16.60;99.90;;;;;;5051402;28;20196;-80
2022/08/25 00:41:06;;;;;;;0.82;0.50;;;16.80;99.90;;;;;;5032845;28;20276;-79
2022/08/25 00:43:48;;;;;;;2.28;0.40;;;16.80;99.90;;;;;;5044307;28;20251;-80
2022/08/25 00:46:21;;;;;;;0.68;0.50;;;16.90;99.90;;;;;;5050658;28;20617;-80
2022/08/25 00:48:56;;;;;;;0.68;0.30;;;16.90;99.90;;;;;;5040106;28;20241;-80
2022/08/25 00:51:34;;;;;;;1.30;0.43;;;17.10;99.90;;;;;;5033560;28;20587;-80
2022/08/25 00:54:07;;;;;;;4.28;0.50;;;17.10;99.90;;;;;;5050882;28;20204;-80
2022/08/25 00:56:38;;;;;;;0.22;0.22;;;17.20;99.90;;;;;;5051047;28;20268;-80
2022/08/25 00:59:09;;;;;;;0.40;0.20;;;17.30;99.90;;;;;;5051035;28;20834;-80
2022/08/25 01:01:41;;;;;;;1.35;0.30;;;17.40;99.90;;;;;;5050495;28;20262;-80
2022/08/25 01:04:11;;;;;;;0.65;0.40;;;17.50;99.90;;;;;;5050685;28;20228;-80
2022/08/25 01:06:45;;;;;;;1.65;0.20;;;17.60;99.90;;;;;;5036352;28;20200;-80
2022/08/25 01:09:16;;;;;;;1.90;0.50;;;17.60;99.90;;;;;;5051071;28;20203;-80
2022/08/25 01:11:48;;;;;;;0.77;0.70;;;17.70;99.90;;;;;;5050945;28;20226;-80
2022/08/25 01:14:21;;;;;;;0.43;0.40;;;17.80;99.90;;;;;;5050743;28;20203;-80
2022/08/25 01:16:52;;;;;;;0.50;0.47;;;17.90;99.90;;;;;;5050455;28;20196;-81
2022/08/25 01:19:24;;;;;;;0.95;0.80;;;17.90;99.90;;;;;;5050458;28;20224;-81
2022/08/25 01:21:57;;;;;;;0.60;0.40;;;17.90;99.90;;;;;;5049554;28;20657;-80
2022/08/25 01:24:36;;;;;;;0.57;0.30;;;18.00;99.90;;;;;;5039049;28;20663;-81
2022/08/25 01:27:08;;;;;;;0.43;0.28;;;18.10;99.90;;;;;;5031318;28;20569;-80
2022/08/25 01:29:40;;;;;;;3.70;1.13;;;18.20;99.90;;;;;;5031217;28;20201;-81
2022/08/25 01:32:13;;;;;;;0.30;0.30;;;18.30;99.90;;;;;;5030260;28;20225;-81
2022/08/25 01:34:46;;;;;;;0.60;0.45;;;18.30;99.90;;;;;;5030452;28;20193;-80
2022/08/25 01:37:19;;;;;;;0.52;0.50;;;18.30;99.90;;;;;;5030619;28;20203;-80
2022/08/25 01:39:50;;;;;;;0.28;0.20;;;18.40;99.90;;;;;;5041006;28;20196;-81
2022/08/25 01:42:43;;;;;;;1.98;0.20;;;18.50;99.90;;;;;;5049975;28;20220;-81
2022/08/25 01:45:15;;;;;;;0.22;0.22;;;18.50;99.90;;;;;;5050362;28;20671;-81
2022/08/25 01:47:46;;;;;;;0.20;0.20;;;18.60;99.90;;;;;;5050622;28;20287;-81
2022/08/25 01:50:17;;;;;;;0.57;0.25;;;18.60;99.90;;;;;;5049016;28;20206;-80
2022/08/25 01:53:01;;;;;;;0.52;0.30;;;18.60;99.90;;;;;;5050147;28;20646;-80
2022/08/25 01:55:50;;;;;;;0.40;0.30;;;18.70;99.90;;;;;;5049319;28;20199;-80
2022/08/25 01:58:22;;;;;;;0.93;0.28;;;18.70;99.90;;;;;;5030004;28;20280;-80
2022/08/25 02:00:55;;;;;;;0.38;0.15;;;18.70;99.90;;;;;;5029957;28;20782;-80
2022/08/25 02:03:27;;;;;;;0.43;0.20;;;18.80;99.90;;;;;;5029816;28;20569;-80
2022/08/25 02:06:00;;;;;;;2.67;0.40;;;18.60;99.90;;;;;;5030075;28;20605;-80
2022/08/25 02:08:32;;;;;;;0.40;0.20;;;18.60;99.90;;;;;;5046799;28;20196;-80
2022/08/25 02:11:03;;;;;;;0.20;0.20;;;18.60;99.90;;;;;;5051123;28;20239;-80
2022/08/25 02:13:34;;;;;;;0.63;0.38;;;18.50;99.90;;;;;;5035237;28;20328;-81
2022/08/25 02:16:05;;;;;;;0.52;0.30;;;18.50;99.90;;;;;;5029929;28;20203;-79
2022/08/25 02:18:36;;;;;;;0.82;0.30;;;18.50;99.90;;;;;;5029872;28;20209;-80
2022/08/25 02:21:07;;;;;;;1.05;0.40;;;18.40;99.90;;;;;;5029688;28;20638;-80
2022/08/25 02:23:40;;;;;;;0.80;0.38;;;18.30;99.90;;;;;;5044207;28;20242;-80
2022/08/25 02:26:12;;;;;;;1.40;0.77;;;18.20;99.90;;;;;;5049766;28;20189;-80
2022/08/25 02:28:43;;;;;;;1.80;0.70;;;18.20;99.90;;;;;;5035012;28;20661;-80
2022/08/25 02:31:14;;;;;;;1.15;0.70;;;18.10;99.90;;;;;;5043795;28;20622;-80
2022/08/25 02:33:45;;;;;;;0.65;0.65;;;18.00;99.90;;;;;;5051020;28;20204;-79
2022/08/25 02:36:16;;;;;;;1.42;0.30;;;17.90;99.90;;;;;;5049974;28;20564;-80
2022/08/25 02:38:49;;;;;;;0.40;0.40;;;18.00;99.90;;;;;;5049999;28;20292;-80
2022/08/25 02:41:22;;;;;;;0.30;0.30;;;17.80;99.90;;;;;;5049650;28;20203;-80
2022/08/25 02:43:54;;;;;;;0.57;0.40;;;17.90;99.90;;;;;;5049354;28;20264;-80
2022/08/25 02:46:25;;;;;;;1.98;1.25;;;17.90;99.90;;;;;;5034219;28;20639;-80
2022/08/25 02:48:56;;;;;;;1.17;0.60;;;18.10;99.90;;;;;;5049255;28;20197;-80
2022/08/25 02:51:29;;;;;;;1.10;0.60;;;18.30;99.90;;;;;;5044165;28;20209;-80
2022/08/25 02:54:03;;;;;;;0.65;0.38;;;18.40;99.90;;;;;;5029931;28;20201;-80
2022/08/25 02:56:34;;;;;;;0.20;0.20;;;18.60;99.90;;;;;;5030374;28;20279;-80
2022/08/25 02:59:05;;;;;;;0.93;0.20;;;18.70;99.90;;;;;;5032780;28;20233;-80
2022/08/25 03:01:36;;;;;;;0.88;0.50;;;18.70;99.90;;;;;;5034977;28;20281;-80
2022/08/25 03:04:07;;;;;;;0.80;0.30;;;18.60;99.90;;;;;;5039943;28;20288;-80
2022/08/25 03:06:38;;;;;;;0.52;0.20;;;18.50;99.90;;;;;;5041374;28;20201;-80
2022/08/25 03:09:11;;;;;;;0.30;0.30;;;18.40;99.90;;;;;;5033217;28;20571;-81
2022/08/25 03:11:42;;;;;;;0.65;0.35;;;18.30;99.90;;;;;;5033332;28;20285;-81
2022/08/25 03:14:13;;;;;;;1.75;0.30;;;18.20;99.90;;;;;;5033672;28;20197;-81
2022/08/25 03:16:44;;;;;;;0.30;0.30;;;18.10;99.90;;;;;;5032661;28;20201;-80
2022/08/25 03:19:15;;;;;;;2.08;0.75;;;18.10;99.90;;;;;;5033326;28;20689;-80
2022/08/25 03:21:46;;;;;;;0.63;0.40;;;18.00;99.90;;;;;;5033715;28;20204;-81
2022/08/25 03:24:19;;;;;;;1.58;0.90;;;18.00;99.90;;;;;;5033424;28;20197;-80
2022/08/25 03:26:54;;;;;;;0.50;0.40;;;17.80;99.90;;;;;;5032918;28;20281;-81
2022/08/25 03:29:26;;;;;;;1.40;0.50;;;17.80;99.90;;;;;;5032701;28;20208;-80
2022/08/25 03:31:59;;;;;;;1.48;0.82;;;17.80;99.90;;;;;;5032906;28;20717;-80
2022/08/25 03:34:31;;;;;;;3.25;1.17;;;17.70;99.90;;;;;;5033134;28;20293;-81
2022/08/25 03:37:02;;;;;;;1.27;0.60;;;17.70;99.90;;;;;;5040915;28;20287;-80
2022/08/25 03:39:35;;;;;;;1.83;0.52;;;17.50;99.90;;;;;;5052721;28;20226;-80
2022/08/25 03:42:07;;;;;;;2.25;0.32;;;17.50;99.90;;;;;;5052539;28;20232;-80
2022/08/25 03:44:37;;;;;;;0.75;0.30;;;17.50;99.90;;;;;;5052530;28;20280;-80
2022/08/25 03:47:08;;;;;;;0.95;0.60;;;17.40;99.90;;;;;;5052786;28;20555;-80
2022/08/25 03:49:39;;;;;;;3.08;0.68;;;17.40;99.90;;;;;;5050665;28;20330;-80
2022/08/25 03:52:10;;;;;;;0.60;0.30;;;17.40;99.90;;;;;;5052352;28;20229;-80
2022/08/25 03:54:43;;;;;;;2.00;0.52;;;17.30;99.90;;;;;;5051087;28;20200;-80
2022/08/25 03:57:14;;;;;;;0.32;0.28;;;17.30;99.90;;;;;;5032356;28;20233;-80
2022/08/25 03:59:45;;;;;;;0.45;0.20;;;17.40;99.90;;;;;;5032630;28;20630;-80
2022/08/25 04:02:16;;;;;;;0.52;0.25;;;17.40;99.90;;;;;;5033940;28;20279;-80
2022/08/25 04:04:47;;;;;;;0.52;0.40;;;17.50;99.90;;;;;;5051917;28;20244;-80
2022/08/25 04:07:18;;;;;;;0.52;0.20;;;17.50;99.90;;;;;;5044884;28;20224;-81
2022/08/25 04:09:51;;;;;;;0.63;0.30;;;17.60;99.90;;;;;;5052289;28;20660;-80
2022/08/25 04:12:22;;;;;;;0.57;0.25;;;17.70;99.90;;;;;;5048611;28;20245;-80
2022/08/25 04:14:53;;;;;;;0.73;0.30;;;17.70;99.90;;;;;;5052076;28;20203;-80
2022/08/25 04:17:24;;;;;;;0.57;0.20;;;17.70;99.90;;;;;;5052798;28;20265;-80
2022/08/25 04:19:56;;;;;;;0.50;0.30;;;17.70;99.90;;;;;;5052870;28;20655;-80
2022/08/25 04:22:27;;;;;;;1.05;0.40;;;17.60;99.90;;;;;;5049013;28;20199;-80
2022/08/25 04:25:18;;;;;;;0.30;0.30;;;17.60;99.90;;;;;;5060406;28;20219;-77
2022/08/25 04:28:00;;;;;;;2.08;0.38;;;17.60;99.90;;;;;;5076916;28;20227;-80
2022/08/25 04:30:35;;;;;;;2.33;0.40;;;17.60;99.90;;;;;;5075410;28;20184;-79
2022/08/25 04:33:09;;;;;;;2.15;0.30;;;17.50;99.90;;;;;;5065368;28;20215;-79
2022/08/25 04:35:40;;;;;;;0.40;0.30;;;17.50;99.90;;;;;;5056968;28;20193;-81
2022/08/25 04:38:29;;;;;;;0.88;0.30;;;17.50;99.90;;;;;;5053666;28;20199;-80
2022/08/25 04:41:10;;;;;;;0.80;0.32;;;17.50;99.90;;;;;;5071430;28;20203;-78
2022/08/25 04:43:51;;;;;;;0.35;0.32;;;17.50;99.90;;;;;;5064629;28;20247;-77
2022/08/25 04:46:27;;;;;;;1.00;0.32;;;17.40;99.90;;;;;;5063966;28;20196;-81
2022/08/25 04:49:01;;;;;;;0.30;0.30;;;17.40;99.90;;;;;;5046677;28;20255;-80
2022/08/25 04:57:10;;;;;;;0.32;0.32;;;17.30;99.90;;;;;;5060271;28;20211;-80
2022/08/25 04:59:43;;;;;;;0.10;0.10;;;17.40;99.90;;;;;;5068273;28;20620;-79
2022/08/25 05:02:14;;;;;;;1.95;0.30;;;17.30;99.90;;;;;;5065742;28;20185;-80
2022/08/25 05:07:28;;;;;;;0.40;0.30;;;17.30;99.90;;;;;;5046753;28;20197;-78
2022/08/25 05:10:01;;;;;;;0.30;0.30;;;17.20;99.90;;;;;;5048612;28;20284;-80
2022/08/25 05:12:34;;;;;;;1.15;0.43;;;17.20;99.90;;;;;;5042053;28;20229;-81
2022/08/25 05:15:49;;;;;;;1.52;0.40;;;17.20;99.90;;;;;;5032421;28;20227;-80
2022/08/25 05:17:56;;;;;;;1.80;0.38;;;17.20;99.90;;;;;;5030164;28;20205;-80
2022/08/25 05:20:28;;;;;;;0.50;0.40;;;17.20;99.90;;;;;;5030755;28;20208;-80
2022/08/25 05:22:59;;;;;;;0.63;0.50;;;17.20;99.90;;;;;;5039872;28;20232;-80
2022/08/25 05:25:30;;;;;;;1.98;0.43;;;17.10;99.90;;;;;;5047774;28;20197;-81
2022/08/25 05:31:05;;;;;;;1.00;0.57;;;17.10;99.90;;;;;;5052776;28;20197;-81
2022/08/25 05:33:37;;;;;;;2.30;0.40;;;17.10;99.90;;;;;;5052086;28;20223;-81
2022/08/25 05:36:21;;;;;;;1.15;0.30;;;17.10;99.90;;;;;;5063049;28;20197;-80
2022/08/25 05:38:52;;;;;;;2.20;0.32;;;17.10;99.90;;;;;;5067823;28;20201;-80
2022/08/25 05:41:34;;;;;;;0.50;0.30;;;17.10;99.90;;;;;;5066345;28;20197;-80
2022/08/25 05:44:11;;;;;;;1.75;0.40;;;17.10;99.90;;;;;;5040143;28;20287;-80
2022/08/25 05:46:42;;;;;;;1.10;0.32;;;17.10;99.90;;;;;;5044881;28;20237;-79
2022/08/25 05:49:13;;;;;;;3.63;0.55;;;17.10;99.90;;;;;;5040373;28;20231;-80
2022/08/25 05:51:46;;;;;;;0.85;0.40;;;17.00;99.90;;;;;;5049497;28;20748;-78
2022/08/25 05:54:17;;;;;;;1.52;0.40;;;17.00;99.90;;;;;;5063927;28;20216;-79
2022/08/25 05:56:48;;;;;;;2.30;0.40;;;17.00;99.90;;;;;;5064751;28;20207;-80
2022/08/25 05:59:29;;;;;;;1.27;0.43;;;17.10;99.90;;;;;;5063843;28;20197;-80
2022/08/25 06:04:49;;;;;;;1.02;0.70;;;17.10;99.90;;;;;;5062828;28;20199;-80
2022/08/25 06:07:20;;;;;;;1.65;0.77;;;17.10;99.90;;;;;;5065164;28;20184;-79
2022/08/25 06:09:51;;;;;;;1.15;0.60;;;17.10;99.90;;;;;;5055233;28;20283;-80
2022/08/25 06:15:20;;;;;;;2.33;0.50;;;17.10;99.90;;;;;;5054545;28;20220;-79
2022/08/25 06:17:53;;;;;;;0.80;0.40;;;17.10;99.90;;;;;;5049306;28;20197;-80
2022/08/25 06:20:36;;;;;;;1.10;0.40;;;17.10;99.90;;;;;;5045080;28;20202;-78
2022/08/25 06:23:11;;;;;;;0.32;0.30;;;17.10;99.90;;;;;;5045955;28;20197;-78
2022/08/25 06:28:37;;;;;;;0.75;0.52;;;17.10;99.90;;;;;;5053123;28;20207;-81
2022/08/25 06:31:13;;;;;;;3.70;0.60;;;17.10;99.90;;;;;;5068957;28;20169;-80
2022/08/25 06:33:56;;;;;;;2.13;0.50;;;17.20;99.90;;;;;;5071056;28;20230;-79
2022/08/25 06:36:32;;;;;;;1.20;0.57;;;17.20;99.90;;;;;;5067713;28;20543;-79
2022/08/25 06:39:06;;;;;;;0.65;0.40;;;17.20;99.90;;;;;;5068484;28;20200;-81
2022/08/25 06:41:40;;;;;;;1.65;0.47;;;17.10;99.90;;;;;;5072851;28;20208;-81
2022/08/25 06:44:19;;;;;;;0.47;0.47;;;17.20;99.90;;;;;;5070640;28;20233;-76
2022/08/25 06:47:05;;;;;;;1.73;0.63;;;17.10;99.90;;;;;;5065980;28;20201;-78
2022/08/25 06:49:36;;;;;;;1.33;0.50;;;17.10;99.90;;;;;;5073255;28;20189;-78
2022/08/25 06:52:12;;;;;;;2.42;0.70;;;17.10;99.90;;;;;;5067837;28;20594;-77
2022/08/25 06:54:44;;;;;;;1.90;0.55;;;17.20;99.90;;;;;;5058096;28;20228;-80
2022/08/25 06:57:15;;;;;;;0.80;0.40;;;17.10;99.90;;;;;;5055656;28;20206;-81
2022/08/25 06:59:46;;;;;;;1.27;0.60;;;17.20;99.90;;;;;;5052870;28;20571;-80
2022/08/25 07:02:19;;;;;;;1.38;0.50;;;17.10;99.90;;;;;;5046998;28;20199;-80
2022/08/25 07:04:52;;;;;;;1.77;0.50;;;17.10;99.90;;;;;;5052302;28;20586;-81
2022/08/25 07:07:23;;;;;;;1.73;0.50;;;17.20;99.90;;;;;;5052560;28;20200;-81
2022/08/25 07:09:53;;;;;;;1.33;0.60;;;17.10;99.90;;;;;;5053004;28;20214;-79
2022/08/25 07:12:24;;;;;;;1.77;0.60;;;17.10;99.90;;;;;;5052726;28;20212;-81
2022/08/25 07:14:55;;;;;;;1.52;0.50;;;17.10;99.90;;;;;;5052377;28;20687;-82
2022/08/25 07:17:28;;;;;;;2.67;0.70;;;17.10;99.90;;;;;;5042177;28;20208;-82
2022/08/25 07:19:59;;;;;;;1.70;0.60;;;17.10;99.90;;;;;;5040366;28;20223;-79
2022/08/25 07:22:29;;;;;;;3.78;0.50;;;17.00;99.90;;;;;;5052878;28;20197;-80
2022/08/25 07:25:00;;;;;;;0.85;0.60;;;17.00;99.90;;;;;;5052227;28;20624;-80
2022/08/25 07:27:31;;;;;;;1.42;0.90;;;16.90;99.90;;;;;;5052625;28;20314;-80
2022/08/25 07:30:02;;;;;;;2.30;0.77;;;16.90;99.90;;;;;;5051630;28;20231;-81
2022/08/25 07:32:34;;;;;;;1.88;0.65;;;16.90;99.90;;;;;;5054976;28;20199;-80
2022/08/25 07:35:19;;;;;;;1.65;0.50;;;16.80;99.90;;;;;;5052644;28;20714;-81
2022/08/25 07:37:51;;;;;;;1.85;0.57;;;16.80;99.90;;;;;;5036462;28;20208;-80
2022/08/25 07:40:26;;;;;;;1.55;0.60;;;16.80;99.90;;;;;;5032939;28;20194;-80
2022/08/25 07:42:58;;;;;;;0.80;0.60;;;16.70;99.90;;;;;;5049076;28;20347;-80
2022/08/25 07:45:31;;;;;;;4.97;1.65;;;16.70;99.90;;;;;;5052058;28;20200;-80
2022/08/25 07:48:06;;;;;;;4.45;2.00;;;16.70;99.90;;;;;;5052216;28;20663;-81
2022/08/25 07:50:38;;;;;;;1.70;1.23;;;16.60;99.90;;;;;;5044106;28;20205;-80
2022/08/25 07:53:13;;;;;;;1.23;0.95;;;16.60;99.90;;;;;;5033429;28;20212;-80
2022/08/25 07:55:43;;;;;;;1.67;0.98;;;16.60;99.90;;;;;;5032188;28;20207;-80
2022/08/25 07:58:15;;;;;;;1.40;1.10;;;16.50;99.90;;;;;;5037020;28;20184;-80
2022/08/25 08:00:51;;;;;;;3.22;1.08;;;16.50;99.90;;;;;;5052281;28;20196;-79
2022/08/25 08:03:24;;;;;;;2.17;1.10;;;16.50;99.90;;;;;;5052501;28;20250;-79
2022/08/25 08:05:55;;;;;;;3.28;2.35;;;16.40;99.90;;;;;;5045123;28;20189;-79
2022/08/25 08:08:26;;;;;;;4.82;3.08;;;16.40;99.90;;;;;;5031775;28;20209;-80
2022/08/25 08:10:58;;;;;;;4.70;3.08;;;16.40;99.90;;;;;;5043448;28;20200;-79
2022/08/25 08:13:29;;;;;;;3.22;2.30;;;16.30;99.90;;;;;;5051525;28;20220;-79
2022/08/25 08:15:59;;;;;;;4.65;2.00;;;16.20;99.90;;;;;;5051744;28;20314;-80
2022/08/25 08:18:32;;;;;;;4.65;2.53;;;16.20;99.90;;;;;;5051512;28;20199;-79
2022/08/25 08:21:03;;;;;;;6.35;3.55;;;16.20;99.90;;;;;;5050892;28;20574;-79
2022/08/25 08:23:33;;;;;;;4.25;2.95;;;16.20;99.90;;;;;;5031608;28;20201;-80
2022/08/25 08:26:04;;;;;;;4.63;2.85;;;16.10;99.90;;;;;;5031416;28;20219;-79
2022/08/25 08:28:35;;;;;;;4.63;2.55;;;16.10;99.90;;;;;;5031286;28;20213;-79
2022/08/25 08:31:06;;;;;;;3.40;1.67;;;16.10;99.90;;;;;;5031282;28;20201;-80
2022/08/25 08:33:40;;;;;;;4.13;1.35;;;16.00;99.90;;;;;;5048284;28;20256;-80
2022/08/25 08:36:12;;;;;;;3.08;1.38;;;16.00;99.90;;;;;;5052027;28;20280;-80
2022/08/25 08:38:44;;;;;;;4.30;1.92;;;16.00;99.90;;;;;;5037346;28;20200;-80
2022/08/25 08:44:34;;;;;;;3.25;1.95;;;15.90;99.90;;;;;;5046527;28;20239;-80
2022/08/25 08:47:12;;;;;;;4.47;2.40;;;15.90;99.90;;;;;;5050590;28;20267;-80
2022/08/25 08:49:53;;;;;;;7.07;2.95;;;15.80;99.90;;;;;;5034694;28;20205;-80
2022/08/25 08:52:37;;;;;;;4.72;2.90;;;15.80;99.90;;;;;;5032580;28;20216;-81
2022/08/25 08:55:25;;;;;;;6.80;2.90;;;15.80;99.90;;;;;;5040293;28;20216;-81
2022/08/25 08:57:59;;;;;;;7.40;2.72;;;15.70;99.90;;;;;;5050860;28;20258;-82
2022/08/25 09:00:31;;;;;;;6.93;2.80;;;15.70;99.90;;;;;;5046951;28;20226;-80
2022/08/25 09:03:06;;;;;;;5.13;3.10;;;15.70;99.90;;;;;;5030872;28;20384;-80
2022/08/25 09:05:56;;;;;;;7.55;3.63;;;15.70;99.90;;;;;;5049591;28;20196;-81
2022/08/25 09:08:27;;;;;;;8.10;3.70;;;15.60;99.90;;;;;;5050648;28;20232;-81
2022/08/25 09:11:07;;;;;;;7.15;3.83;;;15.60;99.90;;;;;;5050805;28;20201;-80
2022/08/25 09:13:53;;;;;;;7.97;3.78;;;15.60;99.90;;;;;;5050611;28;20219;-80
2022/08/25 09:19:41;;;;;;;7.13;4.38;;;15.60;99.90;;;;;;5036042;28;20278;-80
2022/08/25 09:22:27;;;;;;;12.15;5.30;;;15.60;99.90;;;;;;5025840;28;20289;-78
2022/08/25 09:25:05;;;;;;;12.15;6.55;;;15.60;99.90;;;;;;5030444;28;20609;-78
2022/08/25 09:27:41;;;;;;;8.80;5.15;;;15.60;99.90;;;;;;5030253;28;20196;-78
2022/08/25 09:30:16;;;;;;;7.72;4.43;;;15.60;99.90;;;;;;5033173;28;20234;-78
2022/08/25 09:32:48;;;;;;;8.25;4.60;;;15.60;99.90;;;;;;5030184;28;20690;-78
2022/08/25 09:35:24;;;;;;;13.45;6.50;;;15.60;99.90;;;;;;5037300;28;20229;-78
2022/08/25 09:38:06;;;;;;;9.05;5.60;;;15.60;99.90;;;;;;5037596;28;20197;-79
2022/08/25 09:40:39;;;;;;;10.57;5.25;;;15.60;99.90;;;;;;5030215;28;20596;-79
2022/08/25 09:43:23;;;;;;;7.63;4.25;;;15.70;99.90;;;;;;5030208;28;20221;-78
2022/08/25 09:46:00;;;;;;;7.78;4.47;;;15.60;99.90;;;;;;5031602;28;20194;-78
2022/08/25 09:48:36;;;;;;;5.03;2.70;;;15.60;99.90;;;;;;5051127;28;20714;-78
2022/08/25 09:51:22;;;;;;;3.83;2.22;;;15.70;99.90;;;;;;5049828;28;20212;-78
2022/08/25 09:53:58;;;;;;;3.80;1.85;;;15.70;99.90;;;;;;5049479;28;20228;-77
2022/08/25 09:56:31;;;;;;;2.30;0.90;;;15.60;99.90;;;;;;5050479;28;20199;-78
2022/08/25 09:59:24;;;;;;;3.08;2.60;;;15.60;99.90;;;;;;5049867;28;20200;-78
2022/08/25 10:01:56;;;;;;;4.05;2.05;;;15.40;99.90;;;;;;5042000;28;20269;-79
2022/08/25 10:04:30;;;;;;;5.18;2.75;;;15.20;99.90;;;;;;5044455;28;20205;-79
2022/08/25 10:07:02;;;;;;;5.90;2.88;;;15.10;99.90;;;;;;5050982;28;20195;-79
2022/08/25 10:09:42;;;;;;;4.70;2.22;;;15.10;99.90;;;;;;5053813;28;20204;-79
2022/08/25 10:12:23;;;;;;;6.22;2.30;;;15.00;99.90;;;;;;5055439;28;20499;-76
2022/08/25 10:14:54;;;;;;;9.60;6.80;;;15.00;99.90;;;;;;5054085;28;20231;-77
2022/08/25 10:17:29;;;;;;;7.25;5.30;;;15.00;99.90;;;;;;5053916;28;20218;-76
2022/08/25 10:20:18;;;;;;;6.75;5.05;;;15.00;99.90;;;;;;5054056;28;20196;-76
2022/08/25 10:22:50;;;;;;;6.03;4.28;;;15.00;99.90;;;;;;5053369;28;20291;-76
2022/08/25 10:25:28;;;;;;;7.72;4.18;;;15.00;99.90;;;;;;5035368;28;20280;-76
2022/08/25 10:28:12;;;;;;;7.05;4.05;;;15.00;99.90;;;;;;5033388;28;20278;-76
2022/08/25 10:30:56;;;;;;;4.85;3.15;;;14.90;99.90;;;;;;5044802;28;20311;-76
2022/08/25 10:33:38;;;;;;;5.20;2.80;;;15.00;99.90;;;;;;5053513;28;20204;-76
2022/08/25 10:36:17;;;;;;;3.75;2.60;;;15.00;99.90;;;;;;5044145;28;20717;-77
2022/08/25 10:38:51;;;;;;;4.85;2.58;;;15.00;99.90;;;;;;5046756;28;20533;-77
2022/08/25 10:41:46;;;;;;;4.43;2.30;;;15.00;99.90;;;;;;5033940;28;20197;-76
2022/08/25 10:47:43;;;;;;;3.95;2.53;;;14.90;99.90;;;;;;5033643;28;20193;-77
2022/08/25 10:50:25;;;;;;;6.20;3.30;;;14.90;99.90;;;;;;5033459;28;20205;-77
2022/08/25 10:53:12;;;;;;;8.93;3.08;;;14.90;99.90;;;;;;5038344;28;20223;-76
2022/08/25 10:55:56;;;;;;;5.18;2.67;;;15.00;99.90;;;;;;5041056;28;20226;-79
2022/08/25 10:59:03;;;;;;;11.27;5.20;;;14.90;99.90;;;;;;5048097;28;20212;-77
2022/08/25 11:01:46;;;;;;;7.60;3.78;;;15.00;99.90;;;;;;5053159;28;20201;-77
2022/08/25 11:04:24;;;;;;;4.82;2.90;;;14.90;99.90;;;;;;5049473;28;20579;-77
2022/08/25 11:07:08;;;;;;;6.57;3.40;;;14.90;99.90;;;;;;5043675;28;20197;-77
2022/08/25 11:09:43;;;;;;;5.65;3.40;;;14.90;99.90;;;;;;5042320;28;20228;-76
2022/08/25 11:12:24;;;;;;;4.00;2.72;;;14.90;99.90;;;;;;5040833;28;20411;-77
2022/08/25 11:15:09;;;;;;;3.65;2.67;;;14.90;99.90;;;;;;5043616;28;20233;-77
2022/08/25 11:17:53;;;;;;;5.32;2.70;;;14.90;99.90;;;;;;5052309;28;20200;-77
2022/08/25 11:20:35;;;;;;;4.03;2.75;;;14.90;99.90;;;;;;5061535;28;20181;-77
2022/08/25 11:23:16;;;;;;;5.93;2.90;;;14.90;99.90;;;;;;5056124;28;20235;-77
2022/08/25 11:25:53;;;;;;;5.15;2.70;;;14.80;99.90;;;;;;5040784;28;20283;-73
2022/08/25 11:28:52;;;;;;;6.45;4.32;;;14.80;99.90;;;;;;5045438;28;20288;-78
2022/08/25 11:31:47;;;;;;;4.80;2.67;;;14.80;99.90;;;;;;5043380;28;20224;-76
2022/08/25 11:34:19;;;;;;;7.03;4.75;;;14.70;99.90;;;;;;5052194;28;20266;-75
2022/08/25 11:36:55;;;;;;;6.43;3.50;;;14.70;99.90;;;;;;5064059;28;20227;-78
2022/08/25 11:39:40;;;;;;;10.05;4.95;;;14.70;99.90;;;;;;5049176;28;20291;-79
2022/08/25 11:42:23;;;;;;;7.20;4.10;;;14.70;99.90;;;;;;5052492;28;20250;-79
2022/08/25 11:45:19;;;;;;;7.10;3.40;;;14.60;99.90;;;;;;5071430;28;20197;-78
2022/08/25 11:48:07;;;;;;;5.05;2.72;;;14.70;99.90;;;;;;5065240;28;20204;-78
2022/08/25 11:50:55;;;;;;;8.77;2.72;;;14.70;99.90;;;;;;5062451;28;20200;-77
2022/08/25 11:53:34;;;;;;;6.07;2.33;;;14.60;99.90;;;;;;5065101;28;20216;-77
2022/08/25 11:59:03;;;;;;;5.68;2.35;;;14.60;99.90;;;;;;5061923;28;20203;-77
2022/08/25 12:02:06;;;;;;;7.40;2.50;;;14.60;99.90;;;;;;5065843;28;20612;-76
2022/08/25 12:04:47;;;;;;;4.80;2.50;;;14.60;99.90;;;;;;5022658;28;20209;-78
2022/08/25 12:07:32;;;;;;;4.97;2.13;;;14.60;99.90;;;;;;5014134;28;20250;-77
2022/08/25 12:10:24;;;;;;;5.85;2.50;;;14.60;99.90;;;;;;5032971;28;20193;-77
2022/08/25 12:13:04;;;;;;;5.03;2.35;;;14.60;99.90;;;;;;5044715;28;20205;-78
2022/08/25 12:15:53;;;;;;;4.57;2.17;;;14.60;99.90;;;;;;5041992;28;20221;-79
2022/08/25 12:18:46;;;;;;;4.30;2.30;;;14.60;99.90;;;;;;5040812;28;20563;-78
2022/08/25 12:21:36;;;;;;;6.05;2.53;;;14.60;99.90;;;;;;5045182;28;20189;-78
2022/08/25 12:24:17;;;;;;;4.93;2.40;;;14.70;99.90;;;;;;5064167;28;20187;-79
2022/08/25 12:27:00;;;;;;;5.22;2.50;;;14.60;99.90;;;;;;5060259;28;20208;-79
2022/08/25 12:29:42;;;;;;;5.25;2.70;;;14.70;99.90;;;;;;5048516;28;20231;-79
2022/08/25 12:35:49;;;;;;;5.22;2.58;;;14.70;99.90;;;;;;5056161;28;20233;-76
2022/08/25 12:38:44;;;;;;;4.38;2.33;;;14.60;99.90;;;;;;5051093;28;20197;-79
2022/08/25 12:41:22;;;;;;;3.67;2.20;;;14.60;99.90;;;;;;5049521;28;20285;-78
2022/08/25 12:43:55;;;;;;;3.55;2.15;;;14.50;99.90;;;;;;5066073;28;20258;-78
2022/08/25 12:46:38;;;;;;;4.25;1.90;;;14.50;99.90;;;;;;5070648;28;20200;-77
2022/08/25 12:49:38;;;;;;;3.97;2.10;;;14.40;99.90;;;;;;5082372;28;20236;-76
2022/08/25 12:52:17;;;;;;;4.90;2.63;;;14.40;99.90;;;;;;5060824;28;20224;-77
2022/08/25 12:55:01;;;;;;;4.10;1.95;;;14.30;99.90;;;;;;5067525;28;20243;-78
2022/08/25 12:57:46;;;;;;;4.28;2.20;;;14.30;99.90;;;;;;5049595;28;20196;-77
2022/08/25 13:00:34;;;;;;;5.68;2.35;;;14.30;99.90;;;;;;5049059;28;20201;-78
2022/08/25 13:03:28;;;;;;;6.78;2.20;;;14.30;99.90;;;;;;5051313;28;20209;-78
2022/08/25 13:06:36;;;;;;;5.00;2.20;;;14.30;99.90;;;;;;5076409;28;20199;-78
2022/08/25 13:12:33;;;;;;;2.40;1.80;;;14.30;99.90;;;;;;5046557;28;20197;-78
2022/08/25 13:15:04;;;;;;;4.63;2.20;;;14.30;99.90;;;;;;5053598;28;20213;-78
2022/08/25 13:17:37;;;;;;;3.83;2.13;;;14.30;99.90;;;;;;5054331;28;20200;-78
2022/08/25 13:20:20;;;;;;;3.72;1.95;;;14.30;99.90;;;;;;5051243;28;20222;-79
2022/08/25 13:22:53;;;;;;;4.35;2.30;;;14.30;99.90;;;;;;5045785;28;20693;-77
2022/08/25 13:25:25;;;;;;;4.35;2.30;;;14.40;99.90;;;;;;5051771;28;20564;-78
2022/08/25 13:28:01;;;;;;;3.95;2.00;;;14.40;99.90;;;;;;5042618;28;20204;-78
2022/08/25 13:30:33;;;;;;;3.40;1.65;;;14.40;99.90;;;;;;5033517;28;20199;-77
2022/08/25 13:33:19;;;;;;;4.53;1.90;;;14.40;99.90;;;;;;5038832;28;20203;-77
2022/08/25 13:37:26;;;;;;;3.97;1.95;;;14.40;99.90;;;;;;5046308;28;20234;-78
2022/08/25 13:38:41;;;;;;;4.35;1.88;;;14.40;99.90;;;;;;5064245;28;20210;-78
2022/08/25 13:41:18;;;;;;;3.92;1.75;;;14.40;99.90;;;;;;5046081;28;20207;-78
2022/08/25 13:43:51;;;;;;;2.72;1.75;;;14.40;99.90;;;;;;5039937;28;20231;-78
2022/08/25 13:46:23;;;;;;;4.65;2.00;;;14.40;99.90;;;;;;5043476;28;20200;-78
2022/08/25 13:49:03;;;;;;;3.90;2.10;;;14.30;99.90;;;;;;5050706;28;20197;-77
2022/08/25 13:51:34;;;;;;;3.55;2.10;;;14.30;99.90;;;;;;5049458;28;20221;-78
2022/08/25 13:54:07;;;;;;;6.25;2.08;;;14.30;99.90;;;;;;5048703;28;20207;-78
2022/08/25 13:56:40;;;;;;;6.95;2.00;;;14.30;99.90;;;;;;5050526;28;20224;-78
2022/08/25 13:59:24;;;;;;;3.85;2.03;;;14.20;99.90;;;;;;5051372;28;20281;-78
2022/08/25 14:01:58;;;;;;;2.70;2.00;;;14.20;99.90;;;;;;5052189;28;20192;-79
2022/08/25 14:04:32;;;;;;;4.65;2.38;;;14.20;99.90;;;;;;5051261;28;20299;-79
2022/08/25 14:07:27;;;;;;;3.53;1.92;;;14.20;99.90;;;;;;5040280;28;20211;-78
2022/08/25 14:10:00;;;;;;;2.72;1.90;;;14.10;99.90;;;;;;5030206;28;20197;-78